createdAt,value
2023-04-02T00:01:55.085Z,96101.97
2023-04-02T00:04:23.339Z,96102.97
2023-04-02T00:06:55.110Z,96098.69
2023-04-02T00:09:31.021Z,96097.72
2023-04-02T00:12:00.388Z,96102.97
2023-04-02T00:14:30.824Z,96101.25
2023-04-02T00:17:01.501Z,96107.94
2023-04-02T00:19:33.031Z,96111.19
2023-04-02T00:22:01.578Z,96113.41
2023-04-02T00:24:29.135Z,96117.84
2023-04-02T00:26:56.889Z,96115.03
2023-04-02T00:29:24.454Z,96126.34
2023-04-02T00:31:54.657Z,96131.63
2023-04-02T00:34:32.742Z,96124.72
2023-04-02T00:37:00.631Z,96128.97
2023-04-02T00:39:30.165Z,96138.72
2023-04-02T00:42:05.088Z,96136.25
2023-04-02T00:44:33.953Z,96142.50
2023-04-02T00:47:04.770Z,96137.59
2023-04-02T00:49:37.875Z,96145.06
2023-04-02T00:52:08.070Z,96143.22
2023-04-02T00:54:40.376Z,96146.84
2023-04-02T00:57:14.572Z,96150.97
2023-04-02T00:59:49.249Z,96141.44
2023-04-02T01:02:26.432Z,96145.22
2023-04-02T01:04:57.160Z,96153.94
2023-04-02T01:07:35.540Z,96153.13
2023-04-02T01:10:18.119Z,96152.13
2023-04-02T01:12:56.861Z,96155.75
2023-04-02T01:15:27.247Z,96166.28
2023-04-02T01:18:09.600Z,96161.00
2023-04-02T01:20:54.779Z,96164.47
2023-04-02T01:23:26.731Z,96168.53
2023-04-02T01:25:59.532Z,96170.38
2023-04-02T01:28:29.641Z,96171.81
2023-04-02T01:30:59.682Z,96175.44
2023-04-02T01:33:30.651Z,96176.44
2023-04-02T01:36:05.833Z,96179.69
2023-04-02T01:38:37.016Z,96178.88
2023-04-02T01:41:08.581Z,96185.16
2023-04-02T01:43:41.463Z,96170.25
2023-04-02T01:46:28.793Z,96190.56
2023-04-02T01:48:56.800Z,96190.56
2023-04-02T01:51:28.282Z,96187.94
2023-04-02T01:53:56.553Z,96196.66
2023-04-02T01:56:24.285Z,96196.19
2023-04-02T01:58:52.154Z,96188.13
2023-04-02T02:01:21.881Z,96201.09
2023-04-02T02:03:51.289Z,96186.31
2023-04-02T02:06:20.129Z,96200.47
2023-04-02T02:08:50.346Z,96188.03
2023-04-02T02:11:19.993Z,96208.53
2023-04-02T02:13:49.339Z,96193.09
2023-04-02T02:16:19.017Z,96216.06
2023-04-02T02:18:50.994Z,96209.50
2023-04-02T02:21:29.983Z,96211.16
2023-04-02T02:23:58.090Z,96214.78
2023-04-02T02:26:26.377Z,96216.44
2023-04-02T02:28:56.705Z,96221.69
2023-04-02T02:31:28.594Z,96215.13
2023-04-02T02:33:59.925Z,96221.31
2023-04-02T02:36:30.308Z,96215.13
2023-04-02T02:38:59.523Z,96222.50
2023-04-02T02:41:29.798Z,96222.13
2023-04-02T02:44:01.853Z,96224.97
2023-04-02T02:46:30.858Z,96203.81
2023-04-02T02:49:01.184Z,96206.72
2023-04-02T02:51:32.125Z,96223.25
2023-04-02T02:54:03.563Z,96221.50
2023-04-02T02:56:32.025Z,96225.94
2023-04-02T02:59:00.310Z,96227.75
2023-04-02T03:01:29.379Z,96232.38
2023-04-02T03:03:57.301Z,96232.53
2023-04-02T03:06:26.372Z,96239.28
2023-04-02T03:08:59.106Z,96235.81
2023-04-02T03:11:30.692Z,96241.06
2023-04-02T03:14:03.837Z,96241.91
2023-04-02T03:16:35.603Z,96251.59
2023-04-02T03:19:06.819Z,96250.16
2023-04-02T03:21:39.044Z,96257.03
2023-04-02T03:24:12.044Z,96261.78
2023-04-02T03:26:42.095Z,96262.09
2023-04-02T03:29:16.393Z,96262.31
2023-04-02T03:31:47.438Z,96261.66
2023-04-02T03:34:18.572Z,96266.72
2023-04-02T03:36:53.329Z,96269.56
2023-04-02T03:39:24.292Z,96262.66
2023-04-02T03:41:54.207Z,96270.75
2023-04-02T03:44:25.171Z,96258.59
2023-04-02T03:46:57.372Z,96269.03
2023-04-02T03:49:30.315Z,96269.03
2023-04-02T03:52:02.935Z,96275.81
2023-04-02T03:54:31.708Z,96275.28
2023-04-02T03:56:59.690Z,96272.38
2023-04-02T03:59:35.049Z,96286.16
2023-04-02T04:02:11.804Z,96290.63
2023-04-02T04:04:41.762Z,96297.69
2023-04-02T04:07:16.870Z,96297.69
2023-04-02T04:09:47.159Z,96297.69
2023-04-02T04:12:23.227Z,96300.66
2023-04-02T04:14:54.644Z,96310.84
2023-04-02T04:17:30.151Z,96308.84
2023-04-02T04:20:02.870Z,96316.94
2023-04-02T04:22:32.653Z,96322.34
2023-04-02T04:25:01.023Z,96326.97
2023-04-02T04:27:34.571Z,96333.22
2023-04-02T04:30:05.877Z,96338.31
2023-04-02T04:32:36.318Z,96347.84
2023-04-02T04:35:08.145Z,96345.19
2023-04-02T04:37:43.157Z,96347.00
2023-04-02T04:40:17.383Z,96356.53
2023-04-02T04:42:46.900Z,96348.19
2023-04-02T04:45:40.877Z,96359.00
2023-04-02T04:48:11.712Z,96363.25
2023-04-02T04:50:42.450Z,96365.06
2023-04-02T04:53:17.241Z,96371.16
2023-04-02T04:55:45.696Z,96360.50
2023-04-02T04:58:20.034Z,96365.91
2023-04-02T05:00:55.648Z,96381.19
2023-04-02T05:03:30.283Z,96385.28
2023-04-02T05:06:04.356Z,96383.66
2023-04-02T05:08:37.323Z,96390.84
2023-04-02T05:11:07.521Z,96389.00
2023-04-02T05:13:40.245Z,96378.38
2023-04-02T05:16:14.817Z,96391.50
2023-04-02T05:18:44.874Z,96397.41
2023-04-02T05:21:17.462Z,96397.69
2023-04-02T05:23:49.971Z,96400.16
2023-04-02T05:26:20.485Z,96402.31
2023-04-02T05:28:54.209Z,96405.78
2023-04-02T05:31:26.219Z,96410.97
2023-04-02T05:33:54.786Z,96410.34
2023-04-02T05:36:24.536Z,96408.72
2023-04-02T05:38:54.573Z,96407.53
2023-04-02T05:41:26.890Z,96417.88
2023-04-02T05:44:00.837Z,96412.72
2023-04-02T05:46:32.738Z,96420.81
2023-04-02T05:49:00.978Z,96421.56
2023-04-02T05:51:32.714Z,96420.38
2023-04-02T05:54:05.019Z,96431.38
2023-04-02T05:56:36.757Z,96426.94
2023-04-02T05:59:08.509Z,96435.94
2023-04-02T06:01:43.164Z,96429.16
2023-04-02T06:04:18.939Z,96438.16
2023-04-02T06:06:50.039Z,96431.88
2023-04-02T06:09:23.447Z,96441.38
2023-04-02T06:11:55.635Z,96443.47
2023-04-02T06:14:23.267Z,96448.56
2023-04-02T06:16:51.560Z,96448.56
2023-04-02T06:19:23.198Z,96450.19
2023-04-02T06:21:52.324Z,96447.22
2023-04-02T06:24:24.265Z,96442.56
2023-04-02T06:26:56.253Z,96446.22
2023-04-02T06:29:29.880Z,96446.94
2023-04-02T06:31:58.681Z,96449.19
2023-04-02T06:34:28.070Z,96452.91
2023-04-02T06:36:57.766Z,96455.91
2023-04-02T06:39:28.040Z,96460.53
2023-04-02T06:41:59.228Z,96462.81
2023-04-02T06:44:28.753Z,96463.28
2023-04-02T06:46:59.677Z,96477.94
2023-04-02T06:49:33.219Z,96475.09
2023-04-02T06:52:03.234Z,96454.63
2023-04-02T06:54:32.206Z,96484.38
2023-04-02T06:57:03.961Z,96474.03
2023-04-02T06:59:31.532Z,96482.50
2023-04-02T07:02:03.524Z,96486.78
2023-04-02T07:04:31.480Z,96497.69
2023-04-02T07:06:59.375Z,96490.41
2023-04-02T07:09:26.933Z,96494.88
2023-04-02T07:11:55.870Z,96503.06
2023-04-02T07:14:23.733Z,96495.53
2023-04-02T07:16:52.258Z,96498.06
2023-04-02T07:19:21.946Z,96492.13
2023-04-02T07:21:49.590Z,96502.44
2023-04-02T07:24:17.492Z,96502.97
2023-04-02T07:26:47.588Z,96507.88
2023-04-02T07:29:17.355Z,96505.19
2023-04-02T07:31:45.363Z,96510.47
2023-04-02T07:34:12.944Z,96512.16
2023-04-02T07:36:40.662Z,96516.44
2023-04-02T07:39:08.194Z,96516.53
2023-04-02T07:41:51.780Z,96517.53
2023-04-02T07:44:20.694Z,96523.63
2023-04-02T07:46:48.310Z,96533.25
2023-04-02T07:49:15.926Z,96527.34
2023-04-02T07:51:43.500Z,96532.19
2023-04-02T07:54:11.201Z,96539.00
2023-04-02T07:56:38.795Z,96546.47
2023-04-02T07:59:06.822Z,96549.56
2023-04-02T08:01:36.575Z,96551.72
2023-04-02T08:04:05.239Z,96559.25
2023-04-02T08:06:32.853Z,96558.06
2023-04-02T08:09:00.377Z,96566.00
2023-04-02T08:11:29.718Z,96569.09
2023-04-02T08:13:59.674Z,96567.19
2023-04-02T08:16:27.850Z,96573.38
2023-04-02T08:18:56.855Z,96582.94
2023-04-02T08:21:25.345Z,96578.47
2023-04-02T08:23:52.913Z,96581.47
2023-04-02T08:26:20.448Z,96576.72
2023-04-02T08:28:47.992Z,96580.72
2023-04-02T08:31:15.615Z,96581.09
2023-04-02T08:33:43.197Z,96578.16
2023-04-02T08:36:16.631Z,96573.81
2023-04-02T08:38:44.231Z,96576.88
2023-04-02T08:41:21.527Z,96574.09
2023-04-02T08:44:00.984Z,96580.38
2023-04-02T08:46:32.054Z,96582.28
2023-04-02T08:49:02.563Z,96581.91
2023-04-02T08:51:35.617Z,96578.47
2023-04-02T08:54:17.410Z,96579.09
2023-04-02T08:56:48.712Z,96586.38
2023-04-02T08:59:22.972Z,96588.44
2023-04-02T09:01:58.658Z,96583.44
2023-04-02T09:04:27.063Z,96585.13
2023-04-02T09:06:57.780Z,96610.25
2023-04-02T09:09:26.168Z,96612.91
2023-04-02T09:11:56.271Z,96626.19
2023-04-02T09:14:30.621Z,96650.75
2023-04-02T09:17:02.783Z,96646.75
2023-04-02T09:19:35.808Z,96663.84
2023-04-02T09:22:10.392Z,96683.88
2023-04-02T09:24:38.988Z,96690.28
2023-04-02T09:27:18.376Z,96704.50
2023-04-02T09:29:47.048Z,96709.00
2023-04-02T09:32:24.573Z,96723.75
2023-04-02T09:35:15.090Z,96711.16
2023-04-02T09:38:12.597Z,96723.56
2023-04-02T09:40:44.967Z,96726.50
2023-04-02T09:43:14.097Z,96724.31
2023-04-02T09:45:42.795Z,96736.28
2023-04-02T09:48:22.921Z,96741.50
2023-04-02T09:50:50.496Z,96745.63
2023-04-02T09:53:29.858Z,96747.06
2023-04-02T09:56:12.116Z,96737.44
2023-04-02T09:58:42.283Z,96747.06
2023-04-02T10:01:25.251Z,96751.13
2023-04-02T10:03:52.826Z,96754.09
2023-04-02T10:06:20.522Z,96756.59
2023-04-02T10:08:49.452Z,96763.81
2023-04-02T10:11:21.375Z,96761.78
2023-04-02T10:13:53.826Z,96765.06
2023-04-02T10:16:27.462Z,96760.34
2023-04-02T10:18:58.547Z,96770.09
2023-04-02T10:21:28.252Z,96772.72
2023-04-02T10:23:59.246Z,96777.97
2023-04-02T10:26:47.470Z,96769.53
2023-04-02T10:29:38.194Z,96780.88
2023-04-02T10:32:09.748Z,96780.91
2023-04-02T10:34:44.796Z,96785.09
2023-04-02T10:37:28.632Z,96782.06
2023-04-02T10:39:59.438Z,96786.44
2023-04-02T10:42:31.518Z,96783.84
2023-04-02T10:45:01.759Z,96800.19
2023-04-02T10:47:37.981Z,96807.91
2023-04-02T10:50:25.249Z,96815.16
2023-04-02T10:52:58.011Z,96823.53
2023-04-02T10:55:31.813Z,96831.88
2023-04-02T10:58:01.669Z,96841.88
2023-04-02T11:00:30.053Z,96837.81
2023-04-02T11:03:00.192Z,96851.28
2023-04-02T11:05:32.161Z,96859.28
2023-04-02T11:08:04.059Z,96850.38
2023-04-02T11:10:35.339Z,96855.53
2023-04-02T11:13:08.701Z,96853.06
2023-04-02T11:15:37.307Z,96852.72
2023-04-02T11:18:05.435Z,96859.78
2023-04-02T11:21:06.991Z,96864.53
2023-04-02T11:23:37.160Z,96867.03
2023-04-02T11:26:35.247Z,96857.66
2023-04-02T11:29:07.549Z,96859.94
2023-04-02T11:31:35.573Z,96866.19
2023-04-02T11:34:03.284Z,96863.41
2023-04-02T11:37:00.298Z,96864.88
2023-04-02T11:39:53.360Z,96874.91
2023-04-02T11:42:30.472Z,96864.88
2023-04-02T11:45:01.043Z,96854.84
2023-04-02T11:47:29.868Z,96864.88
2023-04-02T11:50:01.472Z,96869.66
2023-04-02T11:52:32.581Z,96856.66
2023-04-02T11:55:07.257Z,96872.28
2023-04-02T11:57:47.276Z,96869.50
2023-04-02T12:00:23.097Z,96864.88
2023-04-02T12:03:03.456Z,96869.13
2023-04-02T12:05:37.587Z,96877.34
2023-04-02T12:08:13.423Z,96870.38
2023-04-02T12:10:54.642Z,96877.13
2023-04-02T12:13:58.487Z,96878.59
2023-04-02T12:16:31.266Z,96878.31
2023-04-02T12:18:59.255Z,96882.66
2023-04-02T12:21:28.712Z,96890.06
2023-04-02T12:23:58.950Z,96893.50
2023-04-02T12:26:37.548Z,96897.09
2023-04-02T12:29:24.701Z,96904.81
2023-04-02T12:31:53.037Z,96903.63
2023-04-02T12:34:22.756Z,96908.28
2023-04-02T12:36:59.497Z,96914.06
2023-04-02T12:39:28.579Z,96914.41
2023-04-02T12:41:56.855Z,96916.34
2023-04-02T12:44:27.626Z,96915.53
2023-04-02T12:46:55.452Z,96914.22
2023-04-02T12:49:29.095Z,96915.69
2023-04-02T12:51:57.520Z,96915.03
2023-04-02T12:54:25.037Z,96918.94
2023-04-02T12:56:57.851Z,96906.63
2023-04-02T12:59:31.282Z,96924.41
2023-04-02T13:02:00.806Z,96917.81
2023-04-02T13:04:28.540Z,96910.59
2023-04-02T13:06:56.551Z,96923.13
2023-04-02T13:09:30.799Z,96922.94
2023-04-02T13:12:00.898Z,96930.03
2023-04-02T13:14:31.176Z,96931.97
2023-04-02T13:16:58.835Z,96933.78
2023-04-02T13:19:29.766Z,96935.09
2023-04-02T13:21:58.686Z,96941.06
2023-04-02T13:24:27.825Z,96941.56
2023-04-02T13:26:58.018Z,96952.34
2023-04-02T13:29:28.311Z,96947.41
2023-04-02T13:31:59.244Z,96955.50
2023-04-02T13:34:27.003Z,96954.66
2023-04-02T13:36:54.849Z,96961.06
2023-04-02T13:39:22.481Z,96964.47
2023-04-02T13:41:54.037Z,96967.19
2023-04-02T13:44:23.716Z,96973.56
2023-04-02T13:46:51.822Z,96968.16
2023-04-02T13:49:20.883Z,96971.13
2023-04-02T13:51:50.586Z,96975.91
2023-04-02T13:54:24.485Z,96977.03
2023-04-02T13:56:52.601Z,96980.41
2023-04-02T13:59:21.049Z,96978.34
2023-04-02T14:01:50.759Z,96982.25
2023-04-02T14:04:23.339Z,96991.13
2023-04-02T14:07:16.994Z,96991.16
2023-04-02T14:09:54.985Z,96994.72
2023-04-02T14:12:30.084Z,96996.09
2023-04-02T14:15:20.584Z,97002.44
2023-04-02T14:17:59.215Z,97006.06
2023-04-02T14:20:36.276Z,97006.78
2023-04-02T14:23:18.069Z,97004.97
2023-04-02T14:25:50.442Z,97004.25
2023-04-02T14:28:23.648Z,97013.56
2023-04-02T14:30:57.891Z,97016.72
2023-04-02T14:33:32.124Z,97014.72
2023-04-02T14:36:10.011Z,97013.13
2023-04-02T14:38:42.047Z,97014.94
2023-04-02T14:41:15.241Z,97019.44
2023-04-02T14:43:46.848Z,97021.78
2023-04-02T14:46:15.296Z,97021.19
2023-04-02T14:48:48.856Z,97031.16
2023-04-02T14:51:24.248Z,97029.34
2023-04-02T14:53:58.142Z,97033.34
2023-04-02T14:56:26.695Z,97035.03
2023-04-02T14:59:06.993Z,97047.75
2023-04-02T15:01:37.923Z,97051.13
2023-04-02T15:04:09.167Z,97044.91
2023-04-02T15:06:41.925Z,97047.56
2023-04-02T15:09:15.428Z,97031.38
2023-04-02T15:11:47.171Z,97057.91
2023-04-02T15:14:18.336Z,97063.31
2023-04-02T15:16:46.000Z,97052.34
2023-04-02T15:19:15.650Z,97070.78
2023-04-02T15:21:57.755Z,97083.41
2023-04-02T15:24:33.093Z,97079.94
2023-04-02T15:27:14.783Z,97081.06
2023-04-02T15:29:53.675Z,97089.38
2023-04-02T15:32:28.276Z,97092.91
2023-04-02T15:35:00.657Z,97088.78
2023-04-02T15:37:34.614Z,97091.19
2023-04-02T15:40:19.410Z,97088.72
2023-04-02T15:42:50.743Z,97096.22
2023-04-02T15:45:31.169Z,97100.56
2023-04-02T15:48:08.585Z,97105.38
2023-04-02T15:50:53.112Z,97103.56
2023-04-02T15:53:35.712Z,97103.50
2023-04-02T15:56:10.421Z,97123.16
2023-04-02T15:58:50.105Z,97121.81
2023-04-02T16:01:23.634Z,97123.09
2023-04-02T16:04:16.906Z,97125.53
2023-04-02T16:07:02.117Z,97131.31
2023-04-02T16:09:38.900Z,97136.47
2023-04-02T16:12:13.599Z,97137.81
2023-04-02T16:14:42.430Z,97142.44
2023-04-02T16:17:24.294Z,97141.38
2023-04-02T16:19:55.763Z,97117.41
2023-04-02T16:22:25.926Z,97146.50
2023-04-02T16:25:01.912Z,97145.66
2023-04-02T16:27:33.074Z,97166.44
2023-04-02T16:30:28.021Z,97171.91
2023-04-02T16:33:08.483Z,97182.13
2023-04-02T16:35:43.561Z,97180.34
2023-04-02T16:38:19.485Z,97183.88
2023-04-02T16:41:06.932Z,97191.50
2023-04-02T16:43:42.273Z,97195.50
2023-04-02T16:46:13.242Z,97206.84
2023-04-02T16:48:46.763Z,97209.59
2023-04-02T16:51:19.722Z,97215.97
2023-04-02T16:54:01.401Z,97211.81
2023-04-02T16:56:44.651Z,97215.28
2023-04-02T16:59:18.535Z,97225.19
2023-04-02T17:01:52.209Z,97236.09
2023-04-02T17:04:46.636Z,97237.31
2023-04-02T17:07:24.055Z,97248.22
2023-04-02T17:09:53.165Z,97254.69
2023-04-02T17:12:23.586Z,97252.06
2023-04-02T17:14:54.605Z,97261.00
2023-04-02T17:17:23.887Z,97253.97
2023-04-02T17:19:53.120Z,97272.53
2023-04-02T17:22:22.775Z,97275.84
2023-04-02T17:24:53.789Z,97267.03
2023-04-02T17:27:26.560Z,97281.59
2023-04-02T17:29:58.086Z,97296.78
2023-04-02T17:32:29.750Z,97291.34
2023-04-02T17:34:57.739Z,97302.78
2023-04-02T17:37:31.205Z,97305.53
2023-04-02T17:40:09.078Z,97315.31
2023-04-02T17:42:49.026Z,97306.44
2023-04-02T17:45:20.668Z,97319.22
2023-04-02T17:47:56.837Z,97323.31
2023-04-02T17:50:47.742Z,97335.38
2023-04-02T17:53:22.659Z,97340.50
2023-04-02T17:55:57.276Z,97335.28
2023-04-02T17:58:43.789Z,97359.06
2023-04-02T18:01:13.632Z,97356.00
2023-04-02T18:03:51.579Z,97352.09
2023-04-02T18:06:21.976Z,97369.31
2023-04-02T18:08:58.899Z,97367.78
2023-04-02T18:11:31.716Z,97372.81
2023-04-02T18:14:03.203Z,97378.59
2023-04-02T18:16:42.627Z,97380.50
2023-04-02T18:19:16.359Z,97393.03
2023-04-02T18:21:50.174Z,97399.75
2023-04-02T18:24:32.475Z,97401.31
2023-04-02T18:27:18.402Z,97398.09
2023-04-02T18:29:54.368Z,97408.44
2023-04-02T18:32:39.842Z,97405.94
2023-04-02T18:35:15.253Z,97414.88
2023-04-02T18:37:51.466Z,97422.03
2023-04-02T18:40:27.560Z,97427.25
2023-04-02T18:43:01.578Z,97434.13
2023-04-02T18:45:38.869Z,97430.66
2023-04-02T18:48:14.915Z,97433.28
2023-04-02T18:50:46.778Z,97443.03
2023-04-02T18:53:15.940Z,97441.97
2023-04-02T18:55:47.630Z,97448.50
2023-04-02T18:58:17.306Z,97447.69
2023-04-02T19:00:46.500Z,97445.19
2023-04-02T19:03:20.805Z,97457.19
2023-04-02T19:05:52.290Z,97459.00
2023-04-02T19:08:23.077Z,97466.69
2023-04-02T19:10:54.447Z,97460.91
2023-04-02T19:13:22.461Z,97469.56
2023-04-02T19:16:09.998Z,97480.72
2023-04-02T19:18:45.468Z,97470.50
2023-04-02T19:21:19.142Z,97470.25
2023-04-02T19:24:00.795Z,97475.50
2023-04-02T19:26:32.655Z,97457.59
2023-04-02T19:29:06.173Z,97479.66
2023-04-02T19:31:42.372Z,97477.84
2023-04-02T19:34:20.012Z,97479.06
2023-04-02T19:36:50.717Z,97487.13
2023-04-02T19:39:40.094Z,97484.78
2023-04-02T19:42:15.567Z,97474.81
2023-04-02T19:44:47.164Z,97464.47
2023-04-02T19:47:17.597Z,97492.38
2023-04-02T19:49:45.626Z,97494.97
2023-04-02T19:52:13.675Z,97497.72
2023-04-02T19:54:41.224Z,97501.06
2023-04-02T19:57:16.093Z,97498.53
2023-04-02T19:59:43.779Z,97505.56
2023-04-02T20:02:11.901Z,97518.00
2023-04-02T20:04:40.909Z,97509.69
2023-04-02T20:07:08.469Z,97521.94
2023-04-02T20:09:36.070Z,97520.16
2023-04-02T20:12:03.628Z,97514.13
2023-04-02T20:14:31.224Z,97530.50
2023-04-02T20:16:59.027Z,97524.66
2023-04-02T20:19:26.634Z,97528.69
2023-04-02T20:21:56.270Z,97533.59
2023-04-02T20:24:23.819Z,97535.38
2023-04-02T20:26:51.353Z,97542.84
2023-04-02T20:29:18.926Z,97549.75
2023-04-02T20:31:46.486Z,97553.66
2023-04-02T20:34:14.202Z,97558.06
2023-04-02T20:36:41.966Z,97565.91
2023-04-02T20:39:11.969Z,97565.91
2023-04-02T20:41:39.579Z,97561.50
2023-04-02T20:44:07.798Z,97572.78
2023-04-02T20:46:35.565Z,97574.06
2023-04-02T20:49:03.429Z,97578.34
2023-04-02T20:51:31.024Z,97580.88
2023-04-02T20:53:59.287Z,97586.09
2023-04-02T20:56:28.176Z,97588.91
2023-04-02T20:58:55.767Z,97591.66
2023-04-02T21:01:25.075Z,97598.66
2023-04-02T21:03:55.787Z,97602.69
2023-04-02T21:06:25.727Z,97616.22
2023-04-02T21:08:53.576Z,97606.84
2023-04-02T21:11:22.140Z,97611.47
2023-04-02T21:13:51.661Z,97608.03
2023-04-02T21:16:20.890Z,97608.97
2023-04-02T21:18:49.551Z,97611.59
2023-04-02T21:21:17.728Z,97616.09
2023-04-02T21:23:45.933Z,97615.16
2023-04-02T21:26:15.692Z,97619.53
2023-04-02T21:28:44.183Z,97614.53
2023-04-02T21:31:16.455Z,97613.69
2023-04-02T21:33:46.172Z,97620.00
2023-04-02T21:36:15.699Z,97613.84
2023-04-02T21:38:43.432Z,97620.00
2023-04-02T21:41:12.932Z,97615.59
2023-04-02T21:43:40.499Z,97616.44
2023-04-02T21:46:08.106Z,97618.22
2023-04-02T21:48:37.221Z,97617.63
2023-04-02T21:51:09.728Z,97616.06
2023-04-02T21:53:37.600Z,97614.16
2023-04-02T21:56:06.785Z,97621.06
2023-04-02T21:58:34.634Z,97605.28
2023-04-02T22:01:02.772Z,97617.72
2023-04-02T22:03:32.060Z,97624.03
2023-04-02T22:06:06.526Z,97622.38
2023-04-02T22:08:34.664Z,97623.31
2023-04-02T22:11:06.877Z,97630.66
2023-04-02T22:13:34.636Z,97630.66
2023-04-02T22:16:05.699Z,97628.06
2023-04-02T22:18:35.013Z,97630.06
2023-04-02T22:21:04.023Z,97635.50
2023-04-02T22:23:31.797Z,97638.34
2023-04-02T22:26:00.835Z,97640.47
2023-04-02T22:28:29.630Z,97642.00
2023-04-02T22:31:05.018Z,97642.34
2023-04-02T22:33:33.328Z,97638.28
2023-04-02T22:36:01.146Z,97640.41
2023-04-02T22:38:30.224Z,97636.97
2023-04-02T22:41:05.631Z,97635.63
2023-04-02T22:43:33.257Z,97639.41
2023-04-02T22:46:00.934Z,97639.41
2023-04-02T22:48:28.541Z,97637.44
2023-04-02T22:50:56.066Z,97638.03
2023-04-02T22:53:23.960Z,97622.66
2023-04-02T22:55:53.072Z,97634.34
2023-04-02T22:58:21.137Z,97641.22
2023-04-02T23:00:49.328Z,97634.81
2023-04-02T23:03:16.857Z,97640.50
2023-04-02T23:05:47.034Z,97636.50
2023-04-02T23:08:14.605Z,97631.97
2023-04-02T23:10:42.131Z,97645.97
2023-04-02T23:13:11.014Z,97654.63
2023-04-02T23:15:38.596Z,97667.81
2023-04-02T23:18:06.440Z,97660.91
2023-04-02T23:20:34.408Z,97652.72
2023-04-02T23:23:02.112Z,97647.88
2023-04-02T23:25:29.704Z,97650.56
2023-04-02T23:27:57.257Z,97654.13
2023-04-02T23:30:26.420Z,97652.59
2023-04-02T23:32:53.962Z,97648.31
2023-04-02T23:35:22.498Z,97650.81
2023-04-02T23:37:50.097Z,97654.13
2023-04-02T23:40:18.129Z,97646.53
2023-04-02T23:42:45.684Z,97645.09
2023-04-02T23:45:13.300Z,97648.66
2023-04-02T23:47:42.276Z,97651.25
2023-04-02T23:50:10.896Z,97651.97
2023-04-02T23:52:38.445Z,97646.03
2023-04-02T23:55:06.809Z,97646.34
2023-04-02T23:57:34.467Z,97646.47
